UBBB/BAK METAR and TAF weather

Enter ICAO airport designator
Station Type Date Time Source
UBBB METAR 2019/06/20 07:30 UTC NOAA

UBBB 200730Z 33014KT CAVOK 33/11 Q1007 R88/CLRD// NOSIG


Station Type Date Time Source
UBBB Decoded METAR 2019/06/20 07:30 UTC NOAA

Baku / Bine Airport, Azerbaijan (UBBB) 40-27N 050-04E -1M
Jun 20, 2019 - 03:30 AM EDT / 2019.06.20 0730 UTC
Wind: from the NNW (330 degrees) at 16 MPH (14 KT):0
Visibility: greater than 7 mile(s):0
Temperature: 91 F (33 C)
Dew Point: 51 F (11 C)
Relative Humidity: 26%
Pressure (altimeter): 29.74 in. Hg (1007 hPa)
ob: UBBB 200730Z 33014KT CAVOK 33/11 Q1007 R88/CLRD// NOSIG
cycle: 7

Station Type Date Time Source
UBBB TAF 2019/06/20 06:09 UTC NOAA

TAF TAF UBBB 200507Z 2006/2106 36012KT CAVOK TX35/2010Z TN20/2101Z
TEMPO 2006/2010 32014KT
TEMPO 2010/2018 03016KT FEW030 SCT100
BECMG 2022/2024 34016G26KT
TEMPO 2100/2106 FEW012 FEW050CB

Example: see airport list